Time;durP1;ratioP1;P1;durP2;ratioP2;P2;SDS_P1;SDS_P2;PMS_P1;PMS_P2;Temp;Humidity;BMP_temperature;BMP_pressure;BME280_temperature;BME280_humidity;BME280_pressure;Samples;Min_cycle;Max_cycle;Signal;HPM_P1;HPM_P2
2021/07/31 00:00:29;;;;;;;;;1.75;1.75;;;;;;;;5061594;28;8795;-77
2021/07/31 00:02:56;;;;;;;;;2.25;2.25;;;;;;;;5064469;28;9658;-77
2021/07/31 00:05:23;;;;;;;;;2.50;2.50;;;;;;;;5051732;28;8852;-76
2021/07/31 00:07:50;;;;;;;;;3.25;2.00;;;;;;;;5043159;28;8901;-77
2021/07/31 00:10:17;;;;;;;;;5.00;2.50;;;;;;;;5053768;28;8860;-76
2021/07/31 00:12:44;;;;;;;;;2.75;2.75;;;;;;;;5062614;28;9029;-76
2021/07/31 00:15:12;;;;;;;;;1.75;1.75;;;;;;;;5063907;28;8878;-76
2021/07/31 00:17:41;;;;;;;;;5.25;3.75;;;;;;;;5055301;28;8864;-76
2021/07/31 00:20:09;;;;;;;;;2.00;2.00;;;;;;;;5061721;28;8998;-77
2021/07/31 00:22:36;;;;;;;;;2.00;2.00;;;;;;;;5055324;28;8846;-77
2021/07/31 00:25:04;;;;;;;;;1.75;1.75;;;;;;;;5053823;28;8888;-78
2021/07/31 00:27:31;;;;;;;;;2.50;2.50;;;;;;;;5047697;28;8866;-77
2021/07/31 00:29:58;;;;;;;;;2.00;2.00;;;;;;;;5053400;28;8890;-77
2021/07/31 00:32:25;;;;;;;;;2.00;2.00;;;;;;;;5067016;28;8828;-77
2021/07/31 00:34:54;;;;;;;;;3.50;2.00;;;;;;;;5065968;28;8973;-77
2021/07/31 00:37:21;;;;;;;;;1.75;1.75;;;;;;;;5056048;28;8870;-77
2021/07/31 00:39:48;;;;;;;;;2.75;2.75;;;;;;;;5061186;28;8993;-78
2021/07/31 00:42:15;;;;;;;;;2.25;2.25;;;;;;;;5046401;28;8840;-77
2021/07/31 00:44:43;;;;;;;;;3.00;3.00;;;;;;;;5047855;28;8838;-77
2021/07/31 00:47:10;;;;;;;;;3.25;3.25;;;;;;;;5059737;28;8884;-77
2021/07/31 00:49:38;;;;;;;;;2.00;2.00;;;;;;;;5056004;28;8864;-77
2021/07/31 00:52:07;;;;;;;;;3.00;3.00;;;;;;;;5059433;28;8862;-77
2021/07/31 00:54:36;;;;;;;;;3.50;2.00;;;;;;;;5067453;28;8860;-76
2021/07/31 00:57:03;;;;;;;;;1.25;1.25;;;;;;;;5065796;28;8892;-77
2021/07/31 00:59:31;;;;;;;;;3.25;2.00;;;;;;;;5049232;28;8872;-77
2021/07/31 01:01:58;;;;;;;;;2.00;2.00;;;;;;;;5062743;28;8951;-76
2021/07/31 01:04:25;;;;;;;;;1.00;1.00;;;;;;;;5055689;28;8904;-77
2021/07/31 01:06:52;;;;;;;;;2.00;2.00;;;;;;;;5061428;28;9587;-77
2021/07/31 01:09:21;;;;;;;;;4.00;2.00;;;;;;;;5065809;28;8971;-77
2021/07/31 01:11:48;;;;;;;;;2.50;2.50;;;;;;;;5066238;28;8865;-76
2021/07/31 01:14:15;;;;;;;;;3.00;2.25;;;;;;;;5065258;28;8898;-77
2021/07/31 01:16:42;;;;;;;;;2.75;2.75;;;;;;;;5049841;28;8892;-77
2021/07/31 01:19:09;;;;;;;;;3.75;1.00;;;;;;;;5055173;28;8864;-77
2021/07/31 01:21:43;;;;;;;;;2.00;2.00;;;;;;;;5062237;28;8887;-77
2021/07/31 01:24:12;;;;;;;;;1.25;1.25;;;;;;;;5063473;28;9694;-77
2021/07/31 01:26:40;;;;;;;;;3.00;1.50;;;;;;;;5046424;28;8851;-76
2021/07/31 01:29:09;;;;;;;;;2.75;1.75;;;;;;;;5060465;28;8840;-75
2021/07/31 01:31:37;;;;;;;;;2.75;2.00;;;;;;;;5064126;28;9808;-74
2021/07/31 01:34:04;;;;;;;;;2.00;2.00;;;;;;;;5047945;28;8854;-75
2021/07/31 01:36:31;;;;;;;;;2.00;1.75;;;;;;;;5052798;28;8890;-77
2021/07/31 01:39:01;;;;;;;;;2.25;2.25;;;;;;;;5049311;28;8867;-77
2021/07/31 01:41:28;;;;;;;;;2.00;2.00;;;;;;;;5049373;28;8855;-77
2021/07/31 01:43:56;;;;;;;;;1.25;1.25;;;;;;;;5064717;28;8921;-77
2021/07/31 01:46:24;;;;;;;;;1.75;1.75;;;;;;;;5062467;28;8868;-78
2021/07/31 01:48:51;;;;;;;;;3.00;1.50;;;;;;;;5054064;28;8886;-77
2021/07/31 01:51:19;;;;;;;;;3.50;3.50;;;;;;;;5062872;28;8860;-78
2021/07/31 01:53:46;;;;;;;;;2.25;2.25;;;;;;;;5065723;28;9626;-77
2021/07/31 01:56:15;;;;;;;;;2.75;2.00;;;;;;;;5063820;28;8856;-77
2021/07/31 01:58:42;;;;;;;;;1.00;1.00;;;;;;;;5053286;28;8864;-77
2021/07/31 02:01:09;;;;;;;;;2.00;2.00;;;;;;;;5048215;28;8824;-77
2021/07/31 02:03:36;;;;;;;;;2.00;2.00;;;;;;;;5059622;28;8888;-76
2021/07/31 02:06:04;;;;;;;;;4.00;2.25;;;;;;;;5057089;28;9644;-78
2021/07/31 02:08:31;;;;;;;;;4.00;3.00;;;;;;;;5052070;28;8871;-77
2021/07/31 02:10:58;;;;;;;;;5.75;4.00;;;;;;;;5049274;28;8836;-78
2021/07/31 02:13:27;;;;;;;;;4.50;2.00;;;;;;;;5062738;28;8852;-77
2021/07/31 02:15:54;;;;;;;;;4.25;3.00;;;;;;;;5065309;28;8872;-77
2021/07/31 02:18:21;;;;;;;;;3.00;3.00;;;;;;;;5061239;28;9684;-76
2021/07/31 02:20:48;;;;;;;;;2.00;2.00;;;;;;;;5053733;28;8983;-76
2021/07/31 02:23:15;;;;;;;;;5.50;2.75;;;;;;;;5057584;28;8874;-76
2021/07/31 02:25:42;;;;;;;;;3.00;3.00;;;;;;;;5050735;28;8906;-76
2021/07/31 02:28:10;;;;;;;;;3.00;3.00;;;;;;;;5058946;28;8902;-77
2021/07/31 02:30:38;;;;;;;;;2.00;2.00;;;;;;;;5063704;28;9535;-75
2021/07/31 02:33:06;;;;;;;;;4.50;3.50;;;;;;;;5057630;28;8846;-76
2021/07/31 02:35:34;;;;;;;;;3.75;2.75;;;;;;;;5047431;28;8951;-76
2021/07/31 02:38:02;;;;;;;;;3.75;3.75;;;;;;;;5059651;28;8872;-76
2021/07/31 02:40:30;;;;;;;;;4.50;3.00;;;;;;;;5043724;28;8882;-76
2021/07/31 02:42:57;;;;;;;;;4.50;3.50;;;;;;;;5059635;28;8860;-76
2021/07/31 02:45:25;;;;;;;;;3.00;3.00;;;;;;;;5052185;28;8851;-77
2021/07/31 02:47:54;;;;;;;;;6.00;2.75;;;;;;;;5064348;28;8864;-76
2021/07/31 02:50:22;;;;;;;;;2.25;2.25;;;;;;;;5064343;28;8882;-77
2021/07/31 02:52:49;;;;;;;;;3.00;2.75;;;;;;;;5061700;28;8868;-76
2021/07/31 02:55:16;;;;;;;;;2.75;2.75;;;;;;;;5064832;28;8868;-75
2021/07/31 02:57:43;;;;;;;;;4.00;2.00;;;;;;;;5055688;28;8914;-76
2021/07/31 03:00:11;;;;;;;;;5.00;3.00;;;;;;;;5063793;28;8971;-76
2021/07/31 03:02:39;;;;;;;;;3.00;3.00;;;;;;;;5049749;28;9687;-76
2021/07/31 03:05:09;;;;;;;;;4.00;2.00;;;;;;;;5062941;28;8892;-76
2021/07/31 03:07:36;;;;;;;;;3.75;2.25;;;;;;;;5057251;28;8958;-76
2021/07/31 03:10:03;;;;;;;;;4.00;3.75;;;;;;;;5054188;28;8868;-76
2021/07/31 03:12:32;;;;;;;;;2.00;2.00;;;;;;;;5064616;28;8906;-77
2021/07/31 03:15:00;;;;;;;;;5.50;4.00;;;;;;;;5054174;28;8864;-76
2021/07/31 03:17:27;;;;;;;;;3.75;3.75;;;;;;;;5065176;28;8902;-76
2021/07/31 03:19:55;;;;;;;;;2.75;2.75;;;;;;;;5039365;28;9005;-76
2021/07/31 03:22:23;;;;;;;;;4.25;3.50;;;;;;;;5062717;28;8880;-76
2021/07/31 03:24:50;;;;;;;;;3.50;3.50;;;;;;;;5062354;28;8868;-76
2021/07/31 03:27:18;;;;;;;;;3.00;3.00;;;;;;;;5057477;28;8869;-76
2021/07/31 03:29:45;;;;;;;;;3.00;3.00;;;;;;;;5057952;28;8931;-76
2021/07/31 03:32:12;;;;;;;;;3.50;3.50;;;;;;;;5053419;28;8805;-77
2021/07/31 03:34:39;;;;;;;;;2.25;2.25;;;;;;;;5064043;28;8883;-76
2021/07/31 03:37:06;;;;;;;;;4.00;3.75;;;;;;;;5053014;28;9018;-77
2021/07/31 03:39:35;;;;;;;;;3.00;2.25;;;;;;;;5050343;28;8881;-77
2021/07/31 03:42:02;;;;;;;;;2.00;2.00;;;;;;;;5063527;28;8848;-78
2021/07/31 03:44:29;;;;;;;;;4.00;4.00;;;;;;;;5063402;28;9702;-77
2021/07/31 03:46:57;;;;;;;;;4.00;3.75;;;;;;;;5056191;28;8849;-77
2021/07/31 03:49:24;;;;;;;;;3.50;3.50;;;;;;;;5061501;28;8868;-77
2021/07/31 03:51:54;;;;;;;;;3.00;3.00;;;;;;;;5064028;28;10095;-77
2021/07/31 03:54:21;;;;;;;;;5.00;2.75;;;;;;;;5063209;28;8868;-77
2021/07/31 03:56:49;;;;;;;;;3.00;3.00;;;;;;;;5060570;28;8887;-78
2021/07/31 03:59:17;;;;;;;;;4.25;2.75;;;;;;;;5067158;28;8890;-78
2021/07/31 04:01:45;;;;;;;;;4.00;3.50;;;;;;;;5055473;28;8831;-77
2021/07/31 04:04:12;;;;;;;;;2.75;2.75;;;;;;;;5062918;28;8874;-78
2021/07/31 04:06:39;;;;;;;;;2.00;2.00;;;;;;;;5058330;28;8953;-77
2021/07/31 04:09:07;;;;;;;;;1.50;1.50;;;;;;;;5053046;28;8913;-78
2021/07/31 04:11:35;;;;;;;;;4.75;4.25;;;;;;;;5056920;28;8969;-76
2021/07/31 04:14:03;;;;;;;;;4.50;3.00;;;;;;;;5049992;28;8856;-76
2021/07/31 04:16:31;;;;;;;;;3.00;3.00;;;;;;;;5066685;28;8868;-78
2021/07/31 04:18:58;;;;;;;;;4.25;3.50;;;;;;;;5067909;28;8902;-77
2021/07/31 04:21:25;;;;;;;;;3.25;3.25;;;;;;;;5059249;28;8868;-78
2021/07/31 04:23:52;;;;;;;;;3.25;3.00;;;;;;;;5059780;28;9628;-78
2021/07/31 04:26:19;;;;;;;;;3.00;3.00;;;;;;;;5065215;28;8842;-77
2021/07/31 04:28:47;;;;;;;;;3.25;3.25;;;;;;;;5064518;28;8912;-78
2021/07/31 04:31:16;;;;;;;;;4.75;4.75;;;;;;;;5064307;28;8789;-76
2021/07/31 04:33:44;;;;;;;;;4.00;4.00;;;;;;;;5064153;28;8844;-76
2021/07/31 04:36:12;;;;;;;;;4.00;4.00;;;;;;;;5049997;28;8847;-77
2021/07/31 04:38:39;;;;;;;;;5.00;5.00;;;;;;;;5046504;28;8843;-77
2021/07/31 04:41:07;;;;;;;;;5.00;5.00;;;;;;;;5061892;28;8898;-77
2021/07/31 04:43:35;;;;;;;;;4.67;4.00;;;;;;;;5047396;28;8860;-77
2021/07/31 04:46:02;;;;;;;;;5.50;4.75;;;;;;;;5045893;28;8984;-79
2021/07/31 04:48:31;;;;;;;;;4.50;4.00;;;;;;;;5046610;28;8986;-77
2021/07/31 04:51:00;;;;;;;;;3.00;3.00;;;;;;;;5042642;28;9595;-77
2021/07/31 04:53:28;;;;;;;;;4.50;3.75;;;;;;;;5047309;28;8893;-80
2021/07/31 04:55:56;;;;;;;;;5.75;4.00;;;;;;;;5045093;28;9432;-78
2021/07/31 04:58:24;;;;;;;;;2.75;2.75;;;;;;;;5051573;28;8911;-75
2021/07/31 05:00:51;;;;;;;;;4.25;3.25;;;;;;;;5043329;28;8772;-76
2021/07/31 05:03:19;;;;;;;;;3.00;3.00;;;;;;;;5044366;28;9670;-79
2021/07/31 05:05:48;;;;;;;;;8.75;4.00;;;;;;;;5045503;28;8900;-77
2021/07/31 05:08:15;;;;;;;;;5.25;4.00;;;;;;;;5044494;28;8918;-83
2021/07/31 05:10:43;;;;;;;;;5.50;4.00;;;;;;;;5043936;28;8860;-81
2021/07/31 05:13:11;;;;;;;;;8.00;5.00;;;;;;;;5045697;28;8848;-81
2021/07/31 05:15:39;;;;;;;;;6.75;5.75;;;;;;;;5023905;28;9709;-82
2021/07/31 05:18:06;;;;;;;;;3.25;3.25;;;;;;;;5046700;28;8836;-83
2021/07/31 05:20:34;;;;;;;;;3.50;3.50;;;;;;;;5042636;28;9024;-80
2021/07/31 05:23:03;;;;;;;;;7.25;4.25;;;;;;;;5045207;28;8882;-80
2021/07/31 05:25:30;;;;;;;;;6.75;4.00;;;;;;;;5044408;28;8848;-78
2021/07/31 05:27:58;;;;;;;;;4.25;4.25;;;;;;;;5045748;28;8964;-78
2021/07/31 05:30:25;;;;;;;;;5.25;5.25;;;;;;;;5043467;28;8772;-79
2021/07/31 05:32:52;;;;;;;;;4.00;4.00;;;;;;;;5042967;28;9007;-81
2021/07/31 05:35:20;;;;;;;;;4.00;4.00;;;;;;;;5037952;28;8872;-82
2021/07/31 05:37:47;;;;;;;;;5.25;5.00;;;;;;;;5025157;28;8975;-81
2021/07/31 05:40:16;;;;;;;;;5.75;2.75;;;;;;;;5026104;28;8896;-79
2021/07/31 05:42:43;;;;;;;;;5.00;5.00;;;;;;;;5008214;28;8894;-82
2021/07/31 05:45:11;;;;;;;;;2.00;2.00;;;;;;;;5041285;28;8884;-82
2021/07/31 05:47:38;;;;;;;;;3.00;3.00;;;;;;;;5025024;28;8860;-83
2021/07/31 05:50:07;;;;;;;;;4.50;4.50;;;;;;;;5025794;28;9619;-81
2021/07/31 05:52:35;;;;;;;;;5.00;4.50;;;;;;;;5026152;28;8887;-83
2021/07/31 05:55:03;;;;;;;;;4.00;4.00;;;;;;;;5024472;28;8884;-80
2021/07/31 05:57:33;;;;;;;;;3.25;3.25;;;;;;;;5025097;28;8869;-80
2021/07/31 06:00:00;;;;;;;;;4.75;4.75;;;;;;;;5024755;28;8904;-82
2021/07/31 06:02:28;;;;;;;;;3.25;3.00;;;;;;;;5024310;28;8797;-82
2021/07/31 06:04:55;;;;;;;;;4.50;4.50;;;;;;;;5023535;28;8853;-82
2021/07/31 06:07:22;;;;;;;;;4.50;4.50;;;;;;;;5025232;28;9015;-79
2021/07/31 06:09:53;;;;;;;;;4.25;4.25;;;;;;;;5024204;28;8840;-79
2021/07/31 06:12:21;;;;;;;;;3.25;3.25;;;;;;;;5024037;28;8877;-82
2021/07/31 06:14:50;;;;;;;;;4.00;4.00;;;;;;;;5026310;28;8852;-82
2021/07/31 06:17:17;;;;;;;;;3.50;3.50;;;;;;;;5024635;28;9713;-82
2021/07/31 06:19:45;;;;;;;;;7.75;5.00;;;;;;;;5025355;28;8849;-86
2021/07/31 06:22:12;;;;;;;;;3.00;3.00;;;;;;;;5023755;28;8852;-77
2021/07/31 06:24:40;;;;;;;;;3.25;3.00;;;;;;;;5025072;28;8877;-87
2021/07/31 06:27:07;;;;;;;;;7.75;6.00;;;;;;;;5024650;28;10272;-85
2021/07/31 06:29:35;;;;;;;;;4.00;4.00;;;;;;;;5006750;28;8889;-86
2021/07/31 06:32:05;;;;;;;;;3.67;3.67;;;;;;;;5023980;28;8839;-81
2021/07/31 06:34:32;;;;;;;;;3.50;3.50;;;;;;;;5025169;28;8995;-82
2021/07/31 06:36:59;;;;;;;;;4.00;2.75;;;;;;;;5048313;28;8990;-81
2021/07/31 06:39:27;;;;;;;;;5.00;5.00;;;;;;;;5045522;28;8886;-83
2021/07/31 06:41:54;;;;;;;;;4.75;4.25;;;;;;;;5054455;28;8909;-83
2021/07/31 06:44:21;;;;;;;;;7.50;4.75;;;;;;;;5045137;28;8874;-81
2021/07/31 06:46:49;;;;;;;;;3.75;3.50;;;;;;;;5055242;28;8971;-80
2021/07/31 06:49:17;;;;;;;;;6.00;6.00;;;;;;;;5065059;28;8852;-81
2021/07/31 06:51:44;;;;;;;;;5.25;5.00;;;;;;;;5063686;28;9519;-80
2021/07/31 06:54:12;;;;;;;;;6.00;6.00;;;;;;;;5065096;28;8983;-81
2021/07/31 06:56:39;;;;;;;;;5.00;5.00;;;;;;;;5045478;28;8897;-80
2021/07/31 06:59:06;;;;;;;;;5.25;5.25;;;;;;;;5063646;28;8963;-79
2021/07/31 07:01:33;;;;;;;;;5.75;5.75;;;;;;;;5051011;28;8853;-80
2021/07/31 07:04:01;;;;;;;;;8.00;6.50;;;;;;;;5063811;28;8906;-79
2021/07/31 07:06:29;;;;;;;;;5.50;5.50;;;;;;;;5043094;28;8862;-79
2021/07/31 07:08:56;;;;;;;;;5.25;5.25;;;;;;;;5044428;28;8871;-80
2021/07/31 07:11:24;;;;;;;;;8.25;6.50;;;;;;;;5046045;28;8868;-81
2021/07/31 07:13:51;;;;;;;;;8.25;6.50;;;;;;;;5044982;28;8854;-79
2021/07/31 07:16:18;;;;;;;;;8.75;6.00;;;;;;;;5046682;28;8953;-76
2021/07/31 07:18:46;;;;;;;;;8.25;7.25;;;;;;;;5043765;28;8862;-78
2021/07/31 07:21:13;;;;;;;;;9.00;7.00;;;;;;;;5043930;28;8895;-78
2021/07/31 07:23:42;;;;;;;;;11.75;9.00;;;;;;;;5043117;28;8886;-79
2021/07/31 07:26:10;;;;;;;;;9.50;7.75;;;;;;;;5042385;28;8881;-78
2021/07/31 07:28:38;;;;;;;;;8.75;8.25;;;;;;;;5041768;28;8842;-79
2021/07/31 07:31:06;;;;;;;;;9.00;7.50;;;;;;;;5042510;28;8822;-78
2021/07/31 07:33:33;;;;;;;;;7.00;7.00;;;;;;;;5045489;28;8912;-78
2021/07/31 07:36:01;;;;;;;;;10.25;9.00;;;;;;;;5025905;28;8866;-78
2021/07/31 07:38:29;;;;;;;;;12.50;9.00;;;;;;;;5043298;28;8878;-78
2021/07/31 07:40:57;;;;;;;;;9.00;9.00;;;;;;;;5044618;28;8859;-79
2021/07/31 07:43:25;;;;;;;;;7.75;7.75;;;;;;;;5025512;28;8897;-79
2021/07/31 07:45:52;;;;;;;;;9.50;9.50;;;;;;;;5044430;28;8872;-79
2021/07/31 07:48:19;;;;;;;;;7.75;7.75;;;;;;;;5040673;28;8948;-79
2021/07/31 07:50:46;;;;;;;;;8.75;8.50;;;;;;;;5046191;28;8889;-78
2021/07/31 07:53:14;;;;;;;;;8.75;8.75;;;;;;;;5044023;28;8826;-79
2021/07/31 07:55:41;;;;;;;;;11.50;9.00;;;;;;;;5045032;28;8869;-79
2021/07/31 07:58:11;;;;;;;;;11.75;11.00;;;;;;;;5063587;28;8890;-79
2021/07/31 08:00:38;;;;;;;;;7.25;6.25;;;;;;;;5057445;28;8808;-77
2021/07/31 08:03:07;;;;;;;;;6.75;6.75;;;;;;;;5044616;28;8851;-78
2021/07/31 08:05:36;;;;;;;;;8.00;8.00;;;;;;;;5045488;28;8856;-77
2021/07/31 08:08:04;;;;;;;;;8.00;8.00;;;;;;;;5048300;28;8862;-77
2021/07/31 08:10:31;;;;;;;;;10.25;9.50;;;;;;;;5045603;28;8887;-78
2021/07/31 08:12:59;;;;;;;;;7.25;7.25;;;;;;;;5042411;28;8882;-78
2021/07/31 08:15:28;;;;;;;;;9.50;8.50;;;;;;;;5043136;28;8866;-78
2021/07/31 08:17:56;;;;;;;;;8.50;6.75;;;;;;;;5044011;28;8854;-78
2021/07/31 08:20:23;;;;;;;;;6.50;6.50;;;;;;;;5044417;28;8883;-76
2021/07/31 08:22:51;;;;;;;;;8.00;8.00;;;;;;;;5041341;28;8866;-79
2021/07/31 08:25:18;;;;;;;;;8.00;5.00;;;;;;;;5050801;28;8903;-79
2021/07/31 08:27:45;;;;;;;;;7.00;5.75;;;;;;;;5048216;28;8847;-81
2021/07/31 08:30:13;;;;;;;;;6.20;6.20;;;;;;;;5046497;28;8900;-80
2021/07/31 08:32:44;;;;;;;;;6.75;5.50;;;;;;;;5056119;28;8876;-79
2021/07/31 08:35:12;;;;;;;;;5.25;5.25;;;;;;;;5045679;28;8876;-79
2021/07/31 08:37:39;;;;;;;;;6.80;6.80;;;;;;;;5052859;28;8967;-79
2021/07/31 08:40:10;;;;;;;;;7.00;6.00;;;;;;;;5051220;28;8914;-79
2021/07/31 08:42:38;;;;;;;;;7.80;6.80;;;;;;;;5050319;28;9660;-78
2021/07/31 08:45:06;;;;;;;;;6.00;4.20;;;;;;;;5057665;28;8850;-78
2021/07/31 08:47:34;;;;;;;;;5.00;5.00;;;;;;;;5062848;28;8892;-79
2021/07/31 08:50:04;;;;;;;;;6.20;6.20;;;;;;;;5066521;28;8860;-78
2021/07/31 08:52:33;;;;;;;;;5.60;4.40;;;;;;;;5066347;28;8898;-78
2021/07/31 08:55:00;;;;;;;;;5.00;5.00;;;;;;;;5054208;28;8866;-78
2021/07/31 08:57:28;;;;;;;;;5.20;5.00;;;;;;;;5063002;28;8989;-78
2021/07/31 08:59:55;;;;;;;;;8.75;7.00;;;;;;;;5066569;28;8880;-79
2021/07/31 09:02:22;;;;;;;;;5.40;4.00;;;;;;;;5065087;28;9602;-79
2021/07/31 09:04:52;;;;;;;;;7.25;7.25;;;;;;;;5066891;28;8880;-79
2021/07/31 09:07:20;;;;;;;;;7.00;7.00;;;;;;;;5065251;28;8876;-79
2021/07/31 09:09:48;;;;;;;;;7.50;7.50;;;;;;;;5060667;28;8872;-79
2021/07/31 09:12:15;;;;;;;;;9.75;9.75;;;;;;;;5053704;28;8954;-78
2021/07/31 09:14:48;;;;;;;;;6.50;6.00;;;;;;;;5065921;28;8864;-78
2021/07/31 09:17:24;;;;;;;;;8.50;8.00;;;;;;;;5066230;28;8871;-78
2021/07/31 09:19:52;;;;;;;;;6.50;6.50;;;;;;;;5061157;28;8885;-79
2021/07/31 09:22:21;;;;;;;;;9.00;8.25;;;;;;;;5066795;28;9398;-77
2021/07/31 09:25:09;;;;;;;;;6.00;5.50;;;;;;;;5064700;28;8880;-78
2021/07/31 09:27:37;;;;;;;;;5.75;5.75;;;;;;;;5062918;28;8926;-78
2021/07/31 09:30:06;;;;;;;;;5.00;5.00;;;;;;;;5045004;28;8860;-78
2021/07/31 09:32:38;;;;;;;;;7.00;5.00;;;;;;;;5065577;28;8909;-78
2021/07/31 09:35:22;;;;;;;;;5.60;5.60;;;;;;;;5052822;28;8880;-79
2021/07/31 09:37:52;;;;;;;;;6.00;6.00;;;;;;;;5064179;28;8905;-78
2021/07/31 09:40:30;;;;;;;;;6.00;6.00;;;;;;;;5066010;28;8946;-78
2021/07/31 09:43:01;;;;;;;;;7.60;5.80;;;;;;;;5066215;28;8880;-78
2021/07/31 09:45:34;;;;;;;;;4.60;4.60;;;;;;;;5052845;28;8862;-78
2021/07/31 09:48:03;;;;;;;;;10.00;9.00;;;;;;;;5065150;28;8868;-78
2021/07/31 09:50:38;;;;;;;;;10.60;8.80;;;;;;;;5064940;28;8876;-78
2021/07/31 09:53:14;;;;;;;;;9.80;9.80;;;;;;;;5048761;28;8884;-78
2021/07/31 09:55:45;;;;;;;;;7.40;7.40;;;;;;;;5064708;28;8876;-78
2021/07/31 09:58:15;;;;;;;;;8.00;7.40;;;;;;;;5040080;28;8863;-75
2021/07/31 10:00:44;;;;;;;;;6.40;6.40;;;;;;;;5049946;28;8805;-73
2021/07/31 10:03:12;;;;;;;;;9.00;9.00;;;;;;;;5057292;28;8848;-78
2021/07/31 10:05:40;;;;;;;;;8.00;7.00;;;;;;;;5064860;28;9010;-76
2021/07/31 10:08:08;;;;;;;;;8.80;8.80;;;;;;;;5051778;28;8866;-76
2021/07/31 10:10:37;;;;;;;;;31.00;28.60;;;;;;;;5062616;28;9578;-78
2021/07/31 10:13:04;;;;;;;;;8.00;5.00;;;;;;;;5065458;28;8871;-74
2021/07/31 10:15:32;;;;;;;;;27.60;27.00;;;;;;;;5064030;28;8864;-79
2021/07/31 10:18:00;;;;;;;;;9.80;8.40;;;;;;;;5069977;28;8848;-77
2021/07/31 10:20:29;;;;;;;;;14.60;13.20;;;;;;;;5035061;28;8955;-79
2021/07/31 10:22:57;;;;;;;;;8.60;8.60;;;;;;;;5046534;28;8998;-76
2021/07/31 10:25:25;;;;;;;;;6.40;6.40;;;;;;;;5055179;28;8880;-77
2021/07/31 10:27:54;;;;;;;;;12.20;11.60;;;;;;;;5050560;28;8878;-77
2021/07/31 10:30:29;;;;;;;;;5.00;4.60;;;;;;;;5050105;28;8877;-78
2021/07/31 10:32:57;;;;;;;;;6.20;6.20;;;;;;;;5041923;28;8859;-77
2021/07/31 10:35:28;;;;;;;;;9.20;7.40;;;;;;;;5057655;28;8856;-80
2021/07/31 10:37:56;;;;;;;;;3.00;3.00;;;;;;;;5042558;28;8947;-78
2021/07/31 10:40:54;;;;;;;;;7.20;5.60;;;;;;;;5047024;28;8874;-83
2021/07/31 10:43:23;;;;;;;;;5.00;5.00;;;;;;;;4974919;28;8861;-80
2021/07/31 10:45:51;;;;;;;;;6.00;6.00;;;;;;;;5032367;28;8860;-81
2021/07/31 10:48:33;;;;;;;;;16.40;14.00;;;;;;;;5047915;28;8853;-84
2021/07/31 10:51:00;;;;;;;;;13.60;13.60;;;;;;;;5045261;28;8983;-79
2021/07/31 10:53:54;;;;;;;;;5.60;5.60;;;;;;;;5044369;28;8870;-76
2021/07/31 10:56:21;;;;;;;;;3.20;3.20;;;;;;;;4993229;28;8842;-80
2021/07/31 10:59:17;;;;;;;;;3.20;3.20;;;;;;;;5047032;28;8892;-79
2021/07/31 11:01:45;;;;;;;;;4.00;4.00;;;;;;;;5047104;28;8816;-80
2021/07/31 11:04:51;;;;;;;;;3.00;3.00;;;;;;;;5048276;28;9654;-78
2021/07/31 11:07:18;;;;;;;;;3.00;3.00;;;;;;;;5042719;28;9683;-81
2021/07/31 11:10:18;;;;;;;;;2.40;2.40;;;;;;;;5044667;28;8867;-78
2021/07/31 11:12:46;;;;;;;;;3.00;3.00;;;;;;;;5032106;28;8847;-80
2021/07/31 11:15:14;;;;;;;;;4.40;1.60;;;;;;;;5046116;28;8876;-83
2021/07/31 11:17:42;;;;;;;;;5.00;5.00;;;;;;;;5045496;28;8862;-77
2021/07/31 11:20:28;;;;;;;;;4.40;4.40;;;;;;;;5042582;28;8860;-78
2021/07/31 11:22:57;;;;;;;;;4.20;4.20;;;;;;;;5043344;28;9609;-83
2021/07/31 11:25:24;;;;;;;;;3.00;3.00;;;;;;;;5039246;28;8887;-83
2021/07/31 11:27:59;;;;;;;;;2.80;2.80;;;;;;;;5043504;28;8855;-84
2021/07/31 11:30:39;;;;;;;;;3.40;3.40;;;;;;;;5044989;28;8775;-85
2021/07/31 11:33:18;;;;;;;;;4.20;3.60;;;;;;;;5045323;28;8886;-78
2021/07/31 11:35:45;;;;;;;;;2.80;2.80;;;;;;;;5042581;28;8871;-83
2021/07/31 11:38:36;;;;;;;;;3.20;2.80;;;;;;;;5043072;28;8885;-77
2021/07/31 11:41:05;;;;;;;;;4.00;3.40;;;;;;;;5044124;28;8859;-79
2021/07/31 11:43:44;;;;;;;;;15.00;13.20;;;;;;;;5042263;28;8892;-80
2021/07/31 11:46:24;;;;;;;;;5.00;5.00;;;;;;;;5043198;28;8866;-81
2021/07/31 11:48:52;;;;;;;;;8.20;6.00;;;;;;;;5045376;28;8854;-80
2021/07/31 11:51:19;;;;;;;;;3.80;3.80;;;;;;;;5050947;28;8873;-79
2021/07/31 11:53:46;;;;;;;;;3.80;3.80;;;;;;;;5064661;28;8886;-81
2021/07/31 11:56:15;;;;;;;;;6.00;5.20;;;;;;;;5062672;28;8902;-81
2021/07/31 11:58:44;;;;;;;;;4.80;4.80;;;;;;;;5065711;28;8894;-80
2021/07/31 12:01:14;;;;;;;;;6.20;5.00;;;;;;;;5049913;28;8822;-84
2021/07/31 12:03:46;;;;;;;;;4.40;4.40;;;;;;;;5061586;28;8876;-81
2021/07/31 12:06:33;;;;;;;;;3.00;3.00;;;;;;;;5061900;28;8890;-80
2021/07/31 12:09:02;;;;;;;;;2.60;2.60;;;;;;;;5053344;28;8900;-81
2021/07/31 12:11:50;;;;;;;;;4.80;3.00;;;;;;;;5058397;28;8916;-81
2021/07/31 12:14:38;;;;;;;;;2.60;2.20;;;;;;;;5059002;28;8876;-79
2021/07/31 12:17:19;;;;;;;;;3.00;3.00;;;;;;;;5053197;28;8870;-79
2021/07/31 12:19:47;;;;;;;;;2.40;2.40;;;;;;;;5055228;28;8902;-78
2021/07/31 12:22:16;;;;;;;;;3.20;1.80;;;;;;;;5029015;28;9025;-76
2021/07/31 12:24:47;;;;;;;;;2.40;2.40;;;;;;;;5048920;28;8882;-76
2021/07/31 12:27:15;;;;;;;;;4.80;4.40;;;;;;;;5046264;28;9463;-79
2021/07/31 12:29:43;;;;;;;;;4.40;4.40;;;;;;;;5047154;28;8873;-75
2021/07/31 12:32:27;;;;;;;;;4.40;4.40;;;;;;;;5044327;28;8795;-83
2021/07/31 12:34:55;;;;;;;;;4.20;4.20;;;;;;;;5047593;28;8874;-82
2021/07/31 12:37:23;;;;;;;;;4.00;4.00;;;;;;;;5058400;28;8860;-79
2021/07/31 12:39:54;;;;;;;;;3.20;3.20;;;;;;;;5056742;28;8854;-79
2021/07/31 12:42:23;;;;;;;;;4.60;3.80;;;;;;;;5031211;28;9184;-79
2021/07/31 12:44:50;;;;;;;;;4.40;4.40;;;;;;;;5047788;28;8853;-79
2021/07/31 12:47:18;;;;;;;;;6.40;5.20;;;;;;;;5056510;28;9025;-79
2021/07/31 12:49:47;;;;;;;;;4.80;4.80;;;;;;;;5044824;28;8883;-79
2021/07/31 12:52:14;;;;;;;;;3.40;3.20;;;;;;;;5055961;28;8898;-79
2021/07/31 12:54:41;;;;;;;;;3.40;3.40;;;;;;;;5045512;28;8890;-78
2021/07/31 12:57:09;;;;;;;;;2.60;2.60;;;;;;;;5037265;28;9709;-78
2021/07/31 12:59:36;;;;;;;;;4.00;4.00;;;;;;;;5029113;28;8858;-78
2021/07/31 13:02:05;;;;;;;;;4.00;4.00;;;;;;;;5050297;28;8833;-80
2021/07/31 13:04:32;;;;;;;;;3.60;3.60;;;;;;;;5038219;28;9055;-79
2021/07/31 13:07:01;;;;;;;;;3.60;3.60;;;;;;;;5042329;28;8860;-79
2021/07/31 13:09:28;;;;;;;;;2.20;2.20;;;;;;;;5052841;28;8884;-80
2021/07/31 13:11:56;;;;;;;;;2.80;1.80;;;;;;;;5033937;28;8892;-79
2021/07/31 13:14:23;;;;;;;;;1.60;1.60;;;;;;;;5071016;28;8902;-79
2021/07/31 13:16:50;;;;;;;;;2.60;2.60;;;;;;;;5057814;28;8884;-78
2021/07/31 13:19:18;;;;;;;;;2.80;2.80;;;;;;;;5056906;28;9613;-78
2021/07/31 13:21:45;;;;;;;;;4.20;2.80;;;;;;;;5051532;28;8884;-79
2021/07/31 13:24:14;;;;;;;;;1.80;1.80;;;;;;;;5066111;28;8960;-80
2021/07/31 13:26:41;;;;;;;;;1.60;1.60;;;;;;;;5060807;28;8868;-78
2021/07/31 13:29:08;;;;;;;;;2.20;2.20;;;;;;;;5056212;28;8854;-78
2021/07/31 13:31:39;;;;;;;;;2.80;2.80;;;;;;;;5063148;28;8854;-77
2021/07/31 13:34:07;;;;;;;;;0.00;0.00;;;;;;;;5052842;28;8882;-78
2021/07/31 13:36:34;;;;;;;;;4.20;2.60;;;;;;;;5038102;28;8981;-78
2021/07/31 13:39:01;;;;;;;;;2.00;1.80;;;;;;;;5050659;28;8984;-78
2021/07/31 13:41:30;;;;;;;;;1.60;1.60;;;;;;;;5047027;28;8842;-77
2021/07/31 13:44:01;;;;;;;;;4.20;4.20;;;;;;;;5044834;28;8888;-80
2021/07/31 13:46:28;;;;;;;;;3.80;3.80;;;;;;;;5045485;28;8870;-79
2021/07/31 13:48:55;;;;;;;;;3.80;3.80;;;;;;;;5043498;28;8866;-79
2021/07/31 13:51:23;;;;;;;;;4.00;4.00;;;;;;;;5047418;28;9616;-79
2021/07/31 13:53:50;;;;;;;;;1.80;1.80;;;;;;;;5043622;28;8909;-82
2021/07/31 13:56:17;;;;;;;;;3.00;3.00;;;;;;;;5056361;28;9013;-79
2021/07/31 13:58:46;;;;;;;;;2.80;2.80;;;;;;;;5046177;28;8866;-79
2021/07/31 14:01:13;;;;;;;;;2.40;2.40;;;;;;;;5044257;28;8829;-80
2021/07/31 14:03:41;;;;;;;;;2.60;2.60;;;;;;;;5045947;28;8855;-80
2021/07/31 14:06:09;;;;;;;;;3.00;3.00;;;;;;;;5045094;28;9700;-80
2021/07/31 14:08:36;;;;;;;;;3.00;3.00;;;;;;;;5047135;28;8846;-83
2021/07/31 14:11:03;;;;;;;;;2.80;2.80;;;;;;;;5045658;28;8978;-77
2021/07/31 14:13:30;;;;;;;;;3.20;3.20;;;;;;;;5047805;28;8874;-81
2021/07/31 14:15:59;;;;;;;;;2.60;2.60;;;;;;;;5052858;28;8850;-81
2021/07/31 14:18:26;;;;;;;;;2.20;2.20;;;;;;;;5054384;28;8990;-81
2021/07/31 14:20:53;;;;;;;;;2.60;2.60;;;;;;;;5049273;28;8853;-83
2021/07/31 14:23:21;;;;;;;;;4.80;3.00;;;;;;;;5051015;28;8979;-81
2021/07/31 14:25:48;;;;;;;;;2.40;2.40;;;;;;;;5048028;28;8862;-81
2021/07/31 14:28:15;;;;;;;;;1.80;1.80;;;;;;;;5051254;28;8919;-84
2021/07/31 14:30:42;;;;;;;;;2.00;2.00;;;;;;;;5058675;28;8895;-85
2021/07/31 14:33:11;;;;;;;;;3.20;3.20;;;;;;;;5055274;28;8846;-78
2021/07/31 14:35:38;;;;;;;;;3.60;2.20;;;;;;;;5054650;28;8878;-78
2021/07/31 14:38:05;;;;;;;;;2.80;2.80;;;;;;;;5065282;28;8886;-83
2021/07/31 14:40:33;;;;;;;;;2.80;2.80;;;;;;;;5043665;28;8901;-79
2021/07/31 14:43:00;;;;;;;;;6.20;2.80;;;;;;;;5047873;28;8885;-76
2021/07/31 14:45:27;;;;;;;;;4.00;4.00;;;;;;;;5049741;28;8878;-80
2021/07/31 14:47:54;;;;;;;;;4.00;4.00;;;;;;;;5046974;28;8889;-82
2021/07/31 14:50:23;;;;;;;;;2.80;2.80;;;;;;;;5027171;28;8867;-82
2021/07/31 14:52:50;;;;;;;;;4.60;3.80;;;;;;;;5045259;28;8884;-78
2021/07/31 14:55:18;;;;;;;;;4.00;3.00;;;;;;;;5056116;28;8856;-81
2021/07/31 14:57:45;;;;;;;;;3.00;3.00;;;;;;;;5043581;28;9561;-78
2021/07/31 15:00:13;;;;;;;;;5.00;3.60;;;;;;;;5058629;28;8880;-80
2021/07/31 15:02:41;;;;;;;;;3.00;3.00;;;;;;;;5046151;28;8862;-80
2021/07/31 15:05:09;;;;;;;;;2.80;2.80;;;;;;;;5048180;28;8869;-79